Diosdado Macapagal International Airport
RPLC : now visible

Airfield :











YOU CAN JOIN US ON...

 
LOGIN :

Register | Disclaimer

   EN    FR    IT 

 









Legend :    VFR   Marginal VFR   IFR   Intensive IFR   Very Intensive IFR
Visi :
Ceiling :
>= 8 km
>= 3000ft
5 to 8 km
1000 to 3000 ft
1500m to 5 km
500 to 1000 ft
800 to 1500m
200 to 500 ft
< 800m
< 200 ft
Symbols :   Thunderstorms  Fog  Heavy snow  Heavy precipitations  Wind > 20 kt






- Airport Elevation : 484 ft
- IATA code : CRK


RPLC - Diosdado Macapagal International

CURRENT METAR :
  • 300000Z 16004KT 7000 HZ SCT020 BKN100 27/25 Q1011 RMK A2985

EXPIRED METARs :
  • 292300Z 18002KT 5000 HZ SCT020 BKN100 26/25 Q1010 RMK A2983
  • 292200Z 07002KT 3000 BR SCT015 BKN090 25/25 Q1010 RMK A2983
  • 292100Z 01002KT 3000 BR SCT015 25/25 Q1010 RMK A2983
  • 292000Z 33002KT 8000 FEW020 26/25 Q1009 NOSIG RMK A2980
  • 291900Z 36002KT 7000 SCT020 BKN100 26/25 Q1009 RMK 2980

TAF TAF RPLC
Valid from the 30 at 00:00 until the 31 at 06:00 UTC


292300Z 3000/3106 14005KT 8000 FEW020 BKN100 TX34/3006Z TN26/3021Z
TEMPO 3000/3006 18010KT SCT020 BKN090
RPHI FIR / Asia



MET'MAP, your aeronautical weather chart ! - Copyright ORBIFLY December 2007 - Disclaimer

ORBIFLY MET'MAP TEAM :

Programming & Development : Alexandra Zaïnal
Original concept : Baudouin d'Aumeries
Technical & hardware support : Manuel Goepfert
Assistance : Marc-Olivier Méhu




SOURCES & CREDITS :

   NOAA       Earth
Advisory